sensor_id;sensor_type;location;lat;lon;timestamp;pressure;altitude;pressure_sealevel;temperature
61977;BMP280;45905;50.570;10.428;2023-04-04T00:00:40;99028.94;;;2.45
61977;BMP280;45905;50.570;10.428;2023-04-04T00:03:07;99023.94;;;2.45
61977;BMP280;45905;50.570;10.428;2023-04-04T00:05:35;99025.63;;;2.44
61977;BMP280;45905;50.570;10.428;2023-04-04T00:08:05;99024.81;;;2.44
61977;BMP280;45905;50.570;10.428;2023-04-04T00:10:32;99030.53;;;2.46
61977;BMP280;45905;50.570;10.428;2023-04-04T00:12:59;99031.44;;;2.45
61977;BMP280;45905;50.570;10.428;2023-04-04T00:15:27;99030.72;;;2.43
61977;BMP280;45905;50.570;10.428;2023-04-04T00:17:54;99024.97;;;2.41
61977;BMP280;45905;50.570;10.428;2023-04-04T00:20:21;99018.50;;;2.37
61977;BMP280;45905;50.570;10.428;2023-04-04T00:22:48;99021.00;;;2.37
61977;BMP280;45905;50.570;10.428;2023-04-04T00:25:15;99016.75;;;2.39
61977;BMP280;45905;50.570;10.428;2023-04-04T00:27:42;99019.16;;;2.40
61977;BMP280;45905;50.570;10.428;2023-04-04T00:30:10;99023.28;;;2.41
61977;BMP280;45905;50.570;10.428;2023-04-04T00:32:38;99016.81;;;2.37
61977;BMP280;45905;50.570;10.428;2023-04-04T00:35:07;99013.69;;;2.34
61977;BMP280;45905;50.570;10.428;2023-04-04T00:37:34;99024.66;;;2.31
61977;BMP280;45905;50.570;10.428;2023-04-04T00:40:01;99010.44;;;2.32
61977;BMP280;45905;50.570;10.428;2023-04-04T00:42:30;99021.81;;;2.22
61977;BMP280;45905;50.570;10.428;2023-04-04T00:45:00;99014.47;;;2.19
61977;BMP280;45905;50.570;10.428;2023-04-04T00:47:29;99019.63;;;2.16
61977;BMP280;45905;50.570;10.428;2023-04-04T00:49:57;99006.97;;;2.19
61977;BMP280;45905;50.570;10.428;2023-04-04T00:52:24;99014.38;;;2.21
61977;BMP280;45905;50.570;10.428;2023-04-04T00:54:54;99014.47;;;2.19
61977;BMP280;45905;50.570;10.428;2023-04-04T00:57:22;99000.44;;;2.17
61977;BMP280;45905;50.570;10.428;2023-04-04T00:59:50;99005.53;;;2.15
61977;BMP280;45905;50.570;10.428;2023-04-04T01:02:18;99007.34;;;2.12
61977;BMP280;45905;50.570;10.428;2023-04-04T01:04:45;99001.72;;;2.09
61977;BMP280;45905;50.570;10.428;2023-04-04T01:07:13;98997.69;;;2.06
61977;BMP280;45905;50.570;10.428;2023-04-04T01:09:41;99002.75;;;2.05
61977;BMP280;45905;50.570;10.428;2023-04-04T01:12:08;98999.63;;;2.01
61977;BMP280;45905;50.570;10.428;2023-04-04T01:14:36;99000.66;;;1.97
61977;BMP280;45905;50.570;10.428;2023-04-04T01:17:04;98993.28;;;1.94
61977;BMP280;45905;50.570;10.428;2023-04-04T01:19:48;98998.38;;;1.93
61977;BMP280;45905;50.570;10.428;2023-04-04T01:22:21;98994.41;;;1.89
61977;BMP280;45905;50.570;10.428;2023-04-04T01:24:50;98997.06;;;1.86
61977;BMP280;45905;50.570;10.428;2023-04-04T01:27:17;98995.44;;;1.85
61977;BMP280;45905;50.570;10.428;2023-04-04T01:29:53;98990.56;;;1.84
61977;BMP280;45905;50.570;10.428;2023-04-04T01:33:26;98993.25;;;1.79
61977;BMP280;45905;50.570;10.428;2023-04-04T01:36:16;98991.66;;;1.78
61977;BMP280;45905;50.570;10.428;2023-04-04T01:39:04;98992.53;;;1.77
61977;BMP280;45905;50.570;10.428;2023-04-04T01:41:34;98986.78;;;1.75
61977;BMP280;45905;50.570;10.428;2023-04-04T01:44:02;98992.59;;;1.76
61977;BMP280;45905;50.570;10.428;2023-04-04T01:46:30;98996.16;;;1.72
61977;BMP280;45905;50.570;10.428;2023-04-04T01:48:58;98996.28;;;1.69
61977;BMP280;45905;50.570;10.428;2023-04-04T01:51:30;98994.03;;;1.65
61977;BMP280;45905;50.570;10.428;2023-04-04T01:53:57;98996.53;;;1.65
61977;BMP280;45905;50.570;10.428;2023-04-04T01:56:25;98985.06;;;1.61
61977;BMP280;45905;50.570;10.428;2023-04-04T01:58:52;98985.38;;;1.55
61977;BMP280;45905;50.570;10.428;2023-04-04T02:01:19;98988.03;;;1.52
61977;BMP280;45905;50.570;10.428;2023-04-04T02:03:47;98984.06;;;1.48
61977;BMP280;45905;50.570;10.428;2023-04-04T02:06:14;98983.28;;;1.48
61977;BMP280;45905;50.570;10.428;2023-04-04T02:08:41;98984.22;;;1.45
61977;BMP280;45905;50.570;10.428;2023-04-04T02:11:09;98990.16;;;1.43
61977;BMP280;45905;50.570;10.428;2023-04-04T02:13:38;98988.59;;;1.40
61977;BMP280;45905;50.570;10.428;2023-04-04T02:16:11;98987.03;;;1.39
61977;BMP280;45905;50.570;10.428;2023-04-04T02:18:39;98983.78;;;1.37
61977;BMP280;45905;50.570;10.428;2023-04-04T02:21:07;98987.16;;;1.36
61977;BMP280;45905;50.570;10.428;2023-04-04T02:23:35;98993.91;;;1.34
61977;BMP280;45905;50.570;10.428;2023-04-04T02:26:02;98990.84;;;1.30
61977;BMP280;45905;50.570;10.428;2023-04-04T02:28:29;98980.94;;;1.28
61977;BMP280;45905;50.570;10.428;2023-04-04T02:31:01;98984.38;;;1.26
61977;BMP280;45905;50.570;10.428;2023-04-04T02:33:29;98985.31;;;1.23
61977;BMP280;45905;50.570;10.428;2023-04-04T02:35:58;98979.69;;;1.20
61977;BMP280;45905;50.570;10.428;2023-04-04T02:38:27;98966.59;;;1.15
61977;BMP280;45905;50.570;10.428;2023-04-04T02:40:54;98966.78;;;1.12
61977;BMP280;45905;50.570;10.428;2023-04-04T02:43:22;98969.47;;;1.08
61977;BMP280;45905;50.570;10.428;2023-04-04T02:45:50;98977.91;;;1.05
61977;BMP280;45905;50.570;10.428;2023-04-04T02:48:23;98970.72;;;0.99
61977;BMP280;45905;50.570;10.428;2023-04-04T02:50:55;98972.47;;;0.97
61977;BMP280;45905;50.570;10.428;2023-04-04T02:53:22;98968.34;;;0.96
61977;BMP280;45905;50.570;10.428;2023-04-04T02:55:52;98961.03;;;0.94
61977;BMP280;45905;50.570;10.428;2023-04-04T02:58:20;98955.38;;;0.90
61977;BMP280;45905;50.570;10.428;2023-04-04T03:00:53;98957.00;;;0.91
61977;BMP280;45905;50.570;10.428;2023-04-04T03:03:26;98959.53;;;0.90
61977;BMP280;45905;50.570;10.428;2023-04-04T03:05:54;98956.47;;;0.85
61977;BMP280;45905;50.570;10.428;2023-04-04T03:08:21;98949.81;;;0.85
61977;BMP280;45905;50.570;10.428;2023-04-04T03:10:48;98947.44;;;0.82
61977;BMP280;45905;50.570;10.428;2023-04-04T03:13:15;98946.69;;;0.80
61977;BMP280;45905;50.570;10.428;2023-04-04T03:15:44;98946.94;;;0.76
61977;BMP280;45905;50.570;10.428;2023-04-04T03:18:13;98943.75;;;0.73
61977;BMP280;45905;50.570;10.428;2023-04-04T03:20:40;98943.03;;;0.71
61977;BMP280;45905;50.570;10.428;2023-04-04T03:23:08;98942.38;;;0.67
61977;BMP280;45905;50.570;10.428;2023-04-04T03:25:36;98946.63;;;0.65
61977;BMP280;45905;50.570;10.428;2023-04-04T03:28:11;98945.06;;;0.63
61977;BMP280;45905;50.570;10.428;2023-04-04T03:30:39;98945.22;;;0.60
61977;BMP280;45905;50.570;10.428;2023-04-04T03:33:07;98941.13;;;0.59
61977;BMP280;45905;50.570;10.428;2023-04-04T03:35:38;98942.06;;;0.57
61977;BMP280;45905;50.570;10.428;2023-04-04T03:38:07;98934.72;;;0.54
61977;BMP280;45905;50.570;10.428;2023-04-04T03:40:34;98934.06;;;0.50
61977;BMP280;45905;50.570;10.428;2023-04-04T03:43:09;98927.44;;;0.49
61977;BMP280;45905;50.570;10.428;2023-04-04T03:45:36;98919.47;;;0.43
61977;BMP280;45905;50.570;10.428;2023-04-04T03:48:05;98928.53;;;0.44
61977;BMP280;45905;50.570;10.428;2023-04-04T03:50:34;98919.59;;;0.40
61977;BMP280;45905;50.570;10.428;2023-04-04T03:53:02;98915.59;;;0.36
61977;BMP280;45905;50.570;10.428;2023-04-04T03:55:29;98922.44;;;0.33
61977;BMP280;45905;50.570;10.428;2023-04-04T03:57:58;98920.13;;;0.28
61977;BMP280;45905;50.570;10.428;2023-04-04T04:00:25;98920.28;;;0.25
61977;BMP280;45905;50.570;10.428;2023-04-04T04:02:52;98919.56;;;0.23
61977;BMP280;45905;50.570;10.428;2023-04-04T04:05:20;98916.31;;;0.21
61977;BMP280;45905;50.570;10.428;2023-04-04T04:07:47;98918.88;;;0.20
61977;BMP280;45905;50.570;10.428;2023-04-04T04:10:14;98920.63;;;0.18
61977;BMP280;45905;50.570;10.428;2023-04-04T04:12:41;98915.84;;;0.14
61977;BMP280;45905;50.570;10.428;2023-04-04T04:15:09;98915.97;;;0.11
61977;BMP280;45905;50.570;10.428;2023-04-04T04:17:39;98910.25;;;0.09
61977;BMP280;45905;50.570;10.428;2023-04-04T04:20:09;98911.16;;;0.08
61977;BMP280;45905;50.570;10.428;2023-04-04T04:22:45;98917.88;;;0.06
61977;BMP280;45905;50.570;10.428;2023-04-04T04:25:18;98916.25;;;0.05
61977;BMP280;45905;50.570;10.428;2023-04-04T04:28:01;98918.00;;;0.03
61977;BMP280;45905;50.570;10.428;2023-04-04T04:30:28;98925.53;;;0.01
61977;BMP280;45905;50.570;10.428;2023-04-04T04:32:56;98922.25;;;0.01
61977;BMP280;45905;50.570;10.428;2023-04-04T04:35:29;98919.03;;;-0.01
61977;BMP280;45905;50.570;10.428;2023-04-04T04:37:57;98920.66;;;0.00
61977;BMP280;45905;50.570;10.428;2023-04-04T04:40:25;98919.03;;;-0.01
61977;BMP280;45905;50.570;10.428;2023-04-04T04:43:04;98923.22;;;-0.01
61977;BMP280;45905;50.570;10.428;2023-04-04T04:45:31;98919.03;;;-0.01
61977;BMP280;45905;50.570;10.428;2023-04-04T04:48:05;98912.44;;;-0.02
61977;BMP280;45905;50.570;10.428;2023-04-04T04:50:39;98918.28;;;-0.03
61977;BMP280;45905;50.570;10.428;2023-04-04T04:53:08;98915.69;;;0.00
61977;BMP280;45905;50.570;10.428;2023-04-04T04:55:35;98917.25;;;0.01
61977;BMP280;45905;50.570;10.428;2023-04-04T04:58:06;98918.75;;;-0.13
61977;BMP280;45905;50.570;10.428;2023-04-04T05:00:33;98920.56;;;-0.17
61977;BMP280;45905;50.570;10.428;2023-04-04T05:03:01;98919.84;;;-0.19
61977;BMP280;45905;50.570;10.428;2023-04-04T05:05:36;98920.56;;;-0.17
61977;BMP280;45905;50.570;10.428;2023-04-04T05:08:08;98920.44;;;-0.14
61977;BMP280;45905;50.570;10.428;2023-04-04T05:10:40;98916.41;;;-0.16
61977;BMP280;45905;50.570;10.428;2023-04-04T05:13:08;98917.94;;;-0.14
61977;BMP280;45905;50.570;10.428;2023-04-04T05:15:41;98926.34;;;-0.16
61977;BMP280;45905;50.570;10.428;2023-04-04T05:18:08;98915.41;;;-0.12
61977;BMP280;45905;50.570;10.428;2023-04-04T05:20:36;98929.25;;;-0.07
61977;BMP280;45905;50.570;10.428;2023-04-04T05:23:05;98929.94;;;-0.03
61977;BMP280;45905;50.570;10.428;2023-04-04T05:25:37;98932.09;;;0.04
61977;BMP280;45905;50.570;10.428;2023-04-04T05:28:05;98933.47;;;0.09
61977;BMP280;45905;50.570;10.428;2023-04-04T05:30:32;98933.31;;;0.14
61977;BMP280;45905;50.570;10.428;2023-04-04T05:33:10;98931.41;;;0.18
61977;BMP280;45905;50.570;10.428;2023-04-04T05:35:42;98926.28;;;0.21
61977;BMP280;45905;50.570;10.428;2023-04-04T05:38:10;98934.34;;;0.26
61977;BMP280;45905;50.570;10.428;2023-04-04T05:40:37;98934.22;;;0.29
61977;BMP280;45905;50.570;10.428;2023-04-04T05:43:09;98934.09;;;0.32
61977;BMP280;45905;50.570;10.428;2023-04-04T05:45:48;98937.31;;;0.34
61977;BMP280;45905;50.570;10.428;2023-04-04T05:48:15;98937.16;;;0.37
61977;BMP280;45905;50.570;10.428;2023-04-04T05:50:51;98945.19;;;0.43
61977;BMP280;45905;50.570;10.428;2023-04-04T05:53:24;98941.72;;;0.46
61977;BMP280;45905;50.570;10.428;2023-04-04T05:55:52;98930.94;;;0.45
61977;BMP280;45905;50.570;10.428;2023-04-04T05:58:25;98938.38;;;0.47
61977;BMP280;45905;50.570;10.428;2023-04-04T06:00:56;98934.88;;;0.51
61977;BMP280;45905;50.570;10.428;2023-04-04T06:03:23;98942.19;;;0.54
61977;BMP280;45905;50.570;10.428;2023-04-04T06:05:52;98945.22;;;0.60
61977;BMP280;45905;50.570;10.428;2023-04-04T06:08:19;98946.75;;;0.62
61977;BMP280;45905;50.570;10.428;2023-04-04T06:10:47;98946.63;;;0.65
61977;BMP280;45905;50.570;10.428;2023-04-04T06:13:14;98950.59;;;0.69
61977;BMP280;45905;50.570;10.428;2023-04-04T06:15:47;98947.88;;;0.74
61977;BMP280;45905;50.570;10.428;2023-04-04T06:18:18;98959.25;;;0.79
61977;BMP280;45905;50.570;10.428;2023-04-04T06:20:45;98959.09;;;0.82
61977;BMP280;45905;50.570;10.428;2023-04-04T06:23:14;98951.50;;;0.85
61977;BMP280;45905;50.570;10.428;2023-04-04T06:25:44;98962.13;;;0.88
61977;BMP280;45905;50.570;10.428;2023-04-04T06:28:13;98964.41;;;0.93
61977;BMP280;45905;50.570;10.428;2023-04-04T06:30:46;98963.28;;;0.98
61977;BMP280;45905;50.570;10.428;2023-04-04T06:33:16;98969.69;;;1.03
61977;BMP280;45905;50.570;10.428;2023-04-04T06:35:46;98972.78;;;1.08
61977;BMP280;45905;50.570;10.428;2023-04-04T06:38:14;98971.88;;;1.09
61977;BMP280;45905;50.570;10.428;2023-04-04T06:40:42;98970.88;;;1.13
61977;BMP280;45905;50.570;10.428;2023-04-04T06:43:09;98966.59;;;1.15
61977;BMP280;45905;50.570;10.428;2023-04-04T06:45:40;98968.22;;;1.16
61977;BMP280;45905;50.570;10.428;2023-04-04T06:48:08;98969.91;;;1.15
61977;BMP280;45905;50.570;10.428;2023-04-04T06:50:36;98968.22;;;1.16
61977;BMP280;45905;50.570;10.428;2023-04-04T06:53:07;98969.09;;;1.15
61977;BMP280;45905;50.570;10.428;2023-04-04T06:55:35;98960.09;;;1.13
61977;BMP280;45905;50.570;10.428;2023-04-04T06:58:02;98969.25;;;1.12
61977;BMP280;45905;50.570;10.428;2023-04-04T07:00:29;98972.84;;;1.07
61977;BMP280;45905;50.570;10.428;2023-04-04T07:02:58;98971.16;;;1.07
61977;BMP280;45905;50.570;10.428;2023-04-04T07:05:26;98972.03;;;1.06
61977;BMP280;45905;50.570;10.428;2023-04-04T07:07:54;98967.22;;;1.03
61977;BMP280;45905;50.570;10.428;2023-04-04T07:10:24;98965.72;;;0.99
61977;BMP280;45905;50.570;10.428;2023-04-04T07:12:52;98965.66;;;1.01
61977;BMP280;45905;50.570;10.428;2023-04-04T07:15:19;98966.41;;;1.03
61977;BMP280;45905;50.570;10.428;2023-04-04T07:17:46;98975.25;;;1.08
61977;BMP280;45905;50.570;10.428;2023-04-04T07:20:13;98972.56;;;1.13
61977;BMP280;45905;50.570;10.428;2023-04-04T07:22:40;98969.84;;;1.17
61977;BMP280;45905;50.570;10.428;2023-04-04T07:25:11;98968.81;;;1.21
61977;BMP280;45905;50.570;10.428;2023-04-04T07:27:39;98964.63;;;1.21
61977;BMP280;45905;50.570;10.428;2023-04-04T07:30:07;98962.94;;;1.22
61977;BMP280;45905;50.570;10.428;2023-04-04T07:32:35;98966.16;;;1.24
61977;BMP280;45905;50.570;10.428;2023-04-04T07:35:05;98966.91;;;1.26
61977;BMP280;45905;50.570;10.428;2023-04-04T07:37:35;98964.25;;;1.29
61977;BMP280;45905;50.570;10.428;2023-04-04T07:40:06;98965.72;;;1.33
61977;BMP280;45905;50.570;10.428;2023-04-04T07:42:34;98963.06;;;1.35
61977;BMP280;45905;50.570;10.428;2023-04-04T07:45:01;98958.75;;;1.39
61977;BMP280;45905;50.570;10.428;2023-04-04T07:47:29;98953.50;;;1.43
61977;BMP280;45905;50.570;10.428;2023-04-04T07:49:56;98956.63;;;1.48
61977;BMP280;45905;50.570;10.428;2023-04-04T07:52:23;98949.69;;;1.53
61977;BMP280;45905;50.570;10.428;2023-04-04T07:54:50;98952.75;;;1.58
61977;BMP280;45905;50.570;10.428;2023-04-04T07:57:18;98947.53;;;1.62
61977;BMP280;45905;50.570;10.428;2023-04-04T07:59:45;98943.03;;;1.69
61977;BMP280;45905;50.570;10.428;2023-04-04T08:02:13;98961.03;;;1.75
61977;BMP280;45905;50.570;10.428;2023-04-04T08:04:40;98955.66;;;1.82
61977;BMP280;45905;50.570;10.428;2023-04-04T08:07:07;98956.00;;;1.91
61977;BMP280;45905;50.570;10.428;2023-04-04T08:09:34;98958.81;;;2.01
61977;BMP280;45905;50.570;10.428;2023-04-04T08:12:02;98952.38;;;2.12
61977;BMP280;45905;50.570;10.428;2023-04-04T08:14:31;98951.25;;;2.17
61977;BMP280;45905;50.570;10.428;2023-04-04T08:16:58;98952.53;;;2.24
61977;BMP280;45905;50.570;10.428;2023-04-04T08:19:26;98949.72;;;2.30
61977;BMP280;45905;50.570;10.428;2023-04-04T08:21:53;98949.31;;;2.37
61977;BMP280;45905;50.570;10.428;2023-04-04T08:24:20;98946.22;;;2.47
61977;BMP280;45905;50.570;10.428;2023-04-04T08:26:49;98955.75;;;2.56
61977;BMP280;45905;50.570;10.428;2023-04-04T08:29:30;98948.63;;;2.64
61977;BMP280;45905;50.570;10.428;2023-04-04T08:31:58;98949.31;;;2.81
61977;BMP280;45905;50.570;10.428;2023-04-04T08:34:26;98948.81;;;2.90
61977;BMP280;45905;50.570;10.428;2023-04-04T08:36:55;98956.47;;;3.02
61977;BMP280;45905;50.570;10.428;2023-04-04T08:39:22;98951.84;;;3.10
61977;BMP280;45905;50.570;10.428;2023-04-04T08:42:05;98955.59;;;3.17
61977;BMP280;45905;50.570;10.428;2023-04-04T08:44:33;98951.69;;;3.26
61977;BMP280;45905;50.570;10.428;2023-04-04T08:47:06;98949.56;;;3.34
61977;BMP280;45905;50.570;10.428;2023-04-04T08:49:39;98940.72;;;3.42
61977;BMP280;45905;50.570;10.428;2023-04-04T08:52:11;98945.47;;;3.47
61977;BMP280;45905;50.570;10.428;2023-04-04T08:54:40;98946.91;;;3.51
61977;BMP280;45905;50.570;10.428;2023-04-04T08:57:07;98942.44;;;3.56
61977;BMP280;45905;50.570;10.428;2023-04-04T08:59:35;98943.88;;;3.60
61977;BMP280;45905;50.570;10.428;2023-04-04T09:04:38;98939.47;;;3.77
61977;BMP280;45905;50.570;10.428;2023-04-04T09:07:05;98936.56;;;3.84
61977;BMP280;45905;50.570;10.428;2023-04-04T09:09:35;98945.31;;;3.91
61977;BMP280;45905;50.570;10.428;2023-04-04T09:12:04;98921.50;;;3.98
61977;BMP280;45905;50.570;10.428;2023-04-04T09:14:34;98931.84;;;4.05
61977;BMP280;45905;50.570;10.428;2023-04-04T09:17:03;98933.09;;;4.12
61977;BMP280;45905;50.570;10.428;2023-04-04T09:19:30;98929.94;;;4.22
61977;BMP280;45905;50.570;10.428;2023-04-04T09:21:57;98930.19;;;4.32
61977;BMP280;45905;50.570;10.428;2023-04-04T09:24:39;98920.94;;;4.46
61977;BMP280;45905;50.570;10.428;2023-04-04T09:27:11;98920.00;;;4.60
61977;BMP280;45905;50.570;10.428;2023-04-04T09:29:40;98915.31;;;4.68
61977;BMP280;45905;50.570;10.428;2023-04-04T09:32:11;98919.13;;;4.74
61977;BMP280;45905;50.570;10.428;2023-04-04T09:34:41;98924.34;;;4.71
61977;BMP280;45905;50.570;10.428;2023-04-04T09:37:09;98929.16;;;4.74
61977;BMP280;45905;50.570;10.428;2023-04-04T09:39:41;98926.06;;;4.82
61977;BMP280;45905;50.570;10.428;2023-04-04T09:42:10;98929.81;;;4.89
61977;BMP280;45905;50.570;10.428;2023-04-04T09:44:38;98928.53;;;4.96
61977;BMP280;45905;50.570;10.428;2023-04-04T09:47:25;98917.00;;;5.06
61977;BMP280;45905;50.570;10.428;2023-04-04T09:49:59;98921.63;;;5.12
61977;BMP280;45905;50.570;10.428;2023-04-04T09:52:31;98914.59;;;5.16
61977;BMP280;45905;50.570;10.428;2023-04-04T09:55:05;98912.78;;;5.18
61977;BMP280;45905;50.570;10.428;2023-04-04T09:57:34;98912.41;;;5.24
61977;BMP280;45905;50.570;10.428;2023-04-04T10:00:05;98912.00;;;5.30
61977;BMP280;45905;50.570;10.428;2023-04-04T10:02:38;98926.66;;;5.36
61977;BMP280;45905;50.570;10.428;2023-04-04T10:05:10;98919.75;;;5.39
61977;BMP280;45905;50.570;10.428;2023-04-04T10:07:39;98926.06;;;5.45
61977;BMP280;45905;50.570;10.428;2023-04-04T10:10:07;98914.03;;;5.50
61977;BMP280;45905;50.570;10.428;2023-04-04T10:12:37;98921.88;;;5.57
61977;BMP280;45905;50.570;10.428;2023-04-04T10:15:05;98915.63;;;5.63
61977;BMP280;45905;50.570;10.428;2023-04-04T10:17:39;98922.91;;;5.67
61977;BMP280;45905;50.570;10.428;2023-04-04T10:20:08;98921.06;;;5.69
61977;BMP280;45905;50.570;10.428;2023-04-04T10:22:37;98922.09;;;5.67
61977;BMP280;45905;50.570;10.428;2023-04-04T10:25:07;98913.44;;;5.58
61977;BMP280;45905;50.570;10.428;2023-04-04T10:27:35;98912.00;;;5.54
61977;BMP280;45905;50.570;10.428;2023-04-04T10:30:05;98903.47;;;5.57
61977;BMP280;45905;50.570;10.428;2023-04-04T10:35:16;98919.50;;;5.68
61977;BMP280;45905;50.570;10.428;2023-04-04T10:37:56;98914.47;;;5.68
61977;BMP280;45905;50.570;10.428;2023-04-04T10:40:29;98919.59;;;5.67
61977;BMP280;45905;50.570;10.428;2023-04-04T10:43:02;98921.06;;;5.69
61977;BMP280;45905;50.570;10.428;2023-04-04T10:45:35;98919.69;;;5.65
61977;BMP280;45905;50.570;10.428;2023-04-04T10:48:07;98917.31;;;5.62
61977;BMP280;45905;50.570;10.428;2023-04-04T10:50:37;98923.00;;;5.66
61977;BMP280;45905;50.570;10.428;2023-04-04T10:53:06;98909.78;;;5.62
61977;BMP280;45905;50.570;10.428;2023-04-04T10:55:35;98914.66;;;5.65
61977;BMP280;45905;50.570;10.428;2023-04-04T10:58:05;98905.97;;;5.69
61977;BMP280;45905;50.570;10.428;2023-04-04T11:00:49;98900.19;;;5.69
61977;BMP280;45905;50.570;10.428;2023-04-04T11:03:18;98902.84;;;5.78
61977;BMP280;45905;50.570;10.428;2023-04-04T11:05:45;98895.81;;;5.83
61977;BMP280;45905;50.570;10.428;2023-04-04T11:08:25;98894.50;;;5.90
61977;BMP280;45905;50.570;10.428;2023-04-04T11:10:54;98891.34;;;5.98
61977;BMP280;45905;50.570;10.428;2023-04-04T11:13:32;98887.66;;;6.04
61977;BMP280;45905;50.570;10.428;2023-04-04T11:16:05;98885.44;;;5.99
61977;BMP280;45905;50.570;10.428;2023-04-04T11:21:15;98876.44;;;6.08
61977;BMP280;45905;50.570;10.428;2023-04-04T11:28:58;98877.06;;;6.34
61977;BMP280;45905;50.570;10.428;2023-04-04T11:31:28;98871.59;;;6.40
61977;BMP280;45905;50.570;10.428;2023-04-04T11:34:28;98868.81;;;6.55
61977;BMP280;45905;50.570;10.428;2023-04-04T11:36:56;98858.72;;;6.78
61977;BMP280;45905;50.570;10.428;2023-04-04T11:39:27;98847.66;;;6.91
61977;BMP280;45905;50.570;10.428;2023-04-04T11:47:28;98852.75;;;7.23
61977;BMP280;45905;50.570;10.428;2023-04-04T11:50:00;98852.16;;;7.20
61977;BMP280;45905;50.570;10.428;2023-04-04T11:52:34;98852.94;;;7.09
61977;BMP280;45905;50.570;10.428;2023-04-04T11:55:01;98847.25;;;7.07
61977;BMP280;45905;50.570;10.428;2023-04-04T11:57:28;98841.59;;;7.04
61977;BMP280;45905;50.570;10.428;2023-04-04T11:59:56;98847.81;;;7.00
61977;BMP280;45905;50.570;10.428;2023-04-04T12:02:25;98853.38;;;6.93
61977;BMP280;45905;50.570;10.428;2023-04-04T12:04:58;98837.59;;;6.91
61977;BMP280;45905;50.570;10.428;2023-04-04T12:07:28;98847.91;;;6.99
61977;BMP280;45905;50.570;10.428;2023-04-04T12:09:55;98845.63;;;7.06
61977;BMP280;45905;50.570;10.428;2023-04-04T12:12:24;98846.34;;;7.08
61977;BMP280;45905;50.570;10.428;2023-04-04T12:14:53;98840.00;;;7.03
61977;BMP280;45905;50.570;10.428;2023-04-04T12:17:40;98841.94;;;6.89
61977;BMP280;45905;50.570;10.428;2023-04-04T12:20:10;98840.63;;;6.73
61977;BMP280;45905;50.570;10.428;2023-04-04T12:22:37;98832.81;;;6.65
61977;BMP280;45905;50.570;10.428;2023-04-04T12:25:05;98828.59;;;6.76
61977;BMP280;45905;50.570;10.428;2023-04-04T12:27:32;98841.34;;;6.85
61977;BMP280;45905;50.570;10.428;2023-04-04T12:30:00;98835.13;;;6.79
61977;BMP280;45905;50.570;10.428;2023-04-04T12:32:30;98828.75;;;6.85
61977;BMP280;45905;50.570;10.428;2023-04-04T12:35:02;98812.41;;;7.02
61977;BMP280;45905;50.570;10.428;2023-04-04T12:37:29;98809.13;;;7.23
61977;BMP280;45905;50.570;10.428;2023-04-04T12:39:56;98809.56;;;7.38
61977;BMP280;45905;50.570;10.428;2023-04-04T12:42:25;98794.78;;;7.55
61977;BMP280;45905;50.570;10.428;2023-04-04T12:44:53;98795.69;;;7.65
61977;BMP280;45905;50.570;10.428;2023-04-04T12:47:21;98796.38;;;7.67
61977;BMP280;45905;50.570;10.428;2023-04-04T12:49:52;98810.59;;;7.68
61977;BMP280;45905;50.570;10.428;2023-04-04T12:52:26;98809.69;;;7.58
61977;BMP280;45905;50.570;10.428;2023-04-04T12:54:58;98801.91;;;7.50
61977;BMP280;45905;50.570;10.428;2023-04-04T12:57:37;98793.41;;;7.41
61977;BMP280;45905;50.570;10.428;2023-04-04T13:00:06;98793.41;;;7.41
61977;BMP280;45905;50.570;10.428;2023-04-04T13:02:37;98790.91;;;7.41
61977;BMP280;45905;50.570;10.428;2023-04-04T13:05:05;98786.78;;;7.40
61977;BMP280;45905;50.570;10.428;2023-04-04T13:07:37;98789.53;;;7.47
61977;BMP280;45905;50.570;10.428;2023-04-04T13:10:12;98787.91;;;7.68
61977;BMP280;45905;50.570;10.428;2023-04-04T13:12:58;98789.47;;;7.80
61977;BMP280;45905;50.570;10.428;2023-04-04T13:15:51;98787.50;;;7.94
61977;BMP280;45905;50.570;10.428;2023-04-04T13:18:22;98788.06;;;7.97
61977;BMP280;45905;50.570;10.428;2023-04-04T13:20:52;98788.06;;;7.97
61977;BMP280;45905;50.570;10.428;2023-04-04T13:23:20;98781.28;;;7.98
61977;BMP280;45905;50.570;10.428;2023-04-04T13:25:48;98760.78;;;8.02
61977;BMP280;45905;50.570;10.428;2023-04-04T13:28:15;98753.19;;;8.13
61977;BMP280;45905;50.570;10.428;2023-04-04T13:30:43;98766.69;;;8.22
61977;BMP280;45905;50.570;10.428;2023-04-04T13:33:18;98758.94;;;8.35
61977;BMP280;45905;50.570;10.428;2023-04-04T13:35:45;98746.38;;;8.44
61977;BMP280;45905;50.570;10.428;2023-04-04T13:38:14;98748.47;;;8.59
61977;BMP280;45905;50.570;10.428;2023-04-04T13:40:41;98742.84;;;8.66
61977;BMP280;45905;50.570;10.428;2023-04-04T13:43:08;98737.97;;;8.74
61977;BMP280;45905;50.570;10.428;2023-04-04T13:45:41;98741.75;;;8.89
61977;BMP280;45905;50.570;10.428;2023-04-04T13:48:12;98740.59;;;8.93
61977;BMP280;45905;50.570;10.428;2023-04-04T13:50:43;98737.38;;;8.91
61977;BMP280;45905;50.570;10.428;2023-04-04T13:53:13;98740.66;;;8.82
61977;BMP280;45905;50.570;10.428;2023-04-04T13:55:40;98733.75;;;8.84
61977;BMP280;45905;50.570;10.428;2023-04-04T13:58:27;98731.47;;;8.81
61977;BMP280;45905;50.570;10.428;2023-04-04T14:00:54;98719.69;;;8.91
61977;BMP280;45905;50.570;10.428;2023-04-04T14:03:23;98720.16;;;9.05
61977;BMP280;45905;50.570;10.428;2023-04-04T14:05:50;98713.00;;;9.10
61977;BMP280;45905;50.570;10.428;2023-04-04T14:08:17;98710.81;;;9.25
61977;BMP280;45905;50.570;10.428;2023-04-04T14:10:44;98717.09;;;9.40
61977;BMP280;45905;50.570;10.428;2023-04-04T14:13:11;98711.97;;;9.60
61977;BMP280;45905;50.570;10.428;2023-04-04T14:15:39;98713.28;;;9.73
61977;BMP280;45905;50.570;10.428;2023-04-04T14:18:06;98714.81;;;9.85
61977;BMP280;45905;50.570;10.428;2023-04-04T14:20:34;98712.31;;;9.94
61977;BMP280;45905;50.570;10.428;2023-04-04T14:23:03;98705.38;;;10.05
61977;BMP280;45905;50.570;10.428;2023-04-04T14:25:30;98706.97;;;10.15
61977;BMP280;45905;50.570;10.428;2023-04-04T14:27:57;98708.56;;;10.26
61977;BMP280;45905;50.570;10.428;2023-04-04T14:30:24;98700.03;;;10.36
61977;BMP280;45905;50.570;10.428;2023-04-04T14:32:51;98693.09;;;10.47
61977;BMP280;45905;50.570;10.428;2023-04-04T14:35:20;98696.13;;;10.50
61977;BMP280;45905;50.570;10.428;2023-04-04T14:37:47;98694.13;;;10.54
61977;BMP280;45905;50.570;10.428;2023-04-04T14:40:15;98690.13;;;10.61
61977;BMP280;45905;50.570;10.428;2023-04-04T14:42:43;98682.38;;;10.71